Terminal Aerodrome Forecast
Issued by NWS

Current Version | Previous Version | Text Only | Print | Product List | Glossary Off
Versions: 1 2 3 4 5 6 7 8 9 10 11 12 13 14

170
FTUS44 KCRP 260534
TAFLRD
TAF
KLRD 260534Z 2606/2706 13011KT P6SM SCT250
     FM261500 15015G20KT P6SM FEW050 SCT250
     FM262300 14016G23KT P6SM VCSH SCT080
     FM270400 13013KT P6SM SKC=

USA.gov is the U.S. government's official web portal to all federal, state and local government web resources and services.